Portada
METAR-TAF:

METAR-TAF

Aeroports :

Ocean County, Nova Jersey, Estats Units d'Amèrica

latitud: 39-55-39N, longitud: 074-17-33W, altitud: 25 m

Observació

L'informe es va fer fa 14 minuts, a les 19:56 UTC
Vent 9 kt del Nord-Oest
Temperatura 2°C
Humitat 32%
Pressió 1028 hPa
Visibilitat: 16.1 km
Cel clar

METAR: KMJX 131956Z AUTO 31009KT 10SM CLR 02/M13 A3036 RMK AO2 SLP286 T00171128 FZRANO

Hora: 15:10 (20:10 UTC)


TAF: manca

Observacions i pronòstics meteorològics de més de 4000 aeroports (METAR i TAF).

Les estacions disponibles són els punts grocs i vermells al mapa.

Posi el ratolí al punt desitjat per veure el nom de l'estació.

Feu clic per veure les observacions i els pronòstics meteorològics.

Per canviar el mapa: feu clic els botons verds amb una creu de color negre per apropar; al botó verd amb un guió per allunyar la imatge; o en les fletxes verdes per a mapes adjacents.


METAR-TAF: